createdAt,value
2023-05-10T00:04:49.921Z,12.29
2023-05-10T00:09:52.506Z,12.27
2023-05-10T00:14:54.618Z,12.06
2023-05-10T00:19:56.958Z,11.72
2023-05-10T00:24:59.604Z,11.61
2023-05-10T00:30:01.753Z,11.51
2023-05-10T00:35:04.075Z,11.39
2023-05-10T00:40:07.410Z,11.27
2023-05-10T00:45:09.843Z,11.10
2023-05-10T00:50:12.073Z,10.85
2023-05-10T00:55:14.430Z,10.75
2023-05-10T01:00:19.954Z,10.78
2023-05-10T01:05:22.272Z,10.62
2023-05-10T01:10:24.856Z,10.54
2023-05-10T01:15:27.855Z,10.46
2023-05-10T01:20:49.710Z,10.42
2023-05-10T01:26:00.591Z,10.45
2023-05-10T01:31:24.620Z,10.89
2023-05-10T01:36:48.670Z,10.94
2023-05-10T01:42:03.243Z,11.03
2023-05-10T01:47:40.778Z,11.12
2023-05-10T01:52:46.477Z,11.16
2023-05-10T01:57:54.736Z,11.27
2023-05-10T02:02:58.158Z,11.18
2023-05-10T02:08:02.361Z,11.27
2023-05-10T02:13:07.339Z,11.46
2023-05-10T02:18:11.912Z,11.56
2023-05-10T02:23:16.546Z,11.77
2023-05-10T02:28:20.107Z,11.69
2023-05-10T02:33:23.369Z,11.82
2023-05-10T02:38:27.920Z,11.87
2023-05-10T02:43:33.355Z,12.03
2023-05-10T02:48:35.545Z,12.14
2023-05-10T02:53:42.025Z,12.19
2023-05-10T02:58:44.230Z,12.25
2023-05-10T03:03:46.378Z,12.10
2023-05-10T03:08:48.620Z,12.08
2023-05-10T03:14:27.154Z,11.96
2023-05-10T03:19:41.085Z,11.60
2023-05-10T03:24:44.164Z,11.48
2023-05-10T03:29:47.530Z,11.21
2023-05-10T03:34:49.726Z,11.13
2023-05-10T03:39:51.932Z,11.20
2023-05-10T03:44:54.211Z,11.31
2023-05-10T03:49:56.725Z,10.95
2023-05-10T03:54:58.868Z,11.34
2023-05-10T04:00:01.290Z,11.26
2023-05-10T04:05:03.622Z,11.37
2023-05-10T04:10:06.247Z,11.53
2023-05-10T04:15:09.241Z,11.78
2023-05-10T04:20:12.108Z,11.88
2023-05-10T04:25:14.352Z,11.71
2023-05-10T04:30:16.778Z,11.70
2023-05-10T04:35:19.245Z,11.49
2023-05-10T04:40:21.780Z,11.33
2023-05-10T04:45:23.969Z,11.28
2023-05-10T04:50:26.098Z,11.09
2023-05-10T04:55:28.474Z,10.95
2023-05-10T05:00:30.579Z,10.91
2023-05-10T05:05:32.742Z,10.90
2023-05-10T05:10:34.906Z,11.27
2023-05-10T05:15:37.103Z,11.37
2023-05-10T05:20:39.302Z,11.52
2023-05-10T05:25:41.463Z,11.44
2023-05-10T05:30:43.572Z,11.68
2023-05-10T05:35:48.599Z,12.36
2023-05-10T05:40:50.861Z,13.07
2023-05-10T05:45:59.073Z,13.29
2023-05-10T05:51:01.504Z,13.59
2023-05-10T05:56:04.855Z,13.38
2023-05-10T06:01:07.022Z,13.02
2023-05-10T06:06:09.208Z,12.97
2023-05-10T06:11:11.497Z,13.02
2023-05-10T06:16:14.283Z,12.92
2023-05-10T06:21:17.264Z,12.94
2023-05-10T06:26:19.438Z,13.34
2023-05-10T06:31:22.106Z,13.59
2023-05-10T06:36:26.068Z,14.40
2023-05-10T06:41:28.314Z,13.99
2023-05-10T06:46:36.461Z,14.34
2023-05-10T06:51:38.578Z,14.09
2023-05-10T06:56:40.748Z,14.30
2023-05-10T07:01:43.227Z,14.92
2023-05-10T07:06:47.297Z,15.25
2023-05-10T07:11:49.396Z,15.90
2023-05-10T07:16:51.595Z,16.04
2023-05-10T07:21:53.714Z,16.43
2023-05-10T07:26:55.939Z,16.78
2023-05-10T07:31:59.005Z,16.45
2023-05-10T07:37:02.094Z,16.87
2023-05-10T07:42:04.436Z,18.01
2023-05-10T07:47:06.650Z,19.21
2023-05-10T07:52:08.838Z,19.54
2023-05-10T07:57:11.009Z,19.39
2023-05-10T08:02:13.281Z,21.30
2023-05-10T08:07:15.510Z,19.58
2023-05-10T08:12:17.740Z,21.32
2023-05-10T08:17:20.932Z,20.12
2023-05-10T08:22:24.271Z,19.81
2023-05-10T08:27:26.482Z,19.15
2023-05-10T08:32:28.673Z,20.50
2023-05-10T08:37:31.415Z,20.43
2023-05-10T08:42:37.104Z,18.53
2023-05-10T08:47:40.519Z,19.89
2023-05-10T08:52:43.070Z,23.34
2023-05-10T08:57:45.690Z,21.99
2023-05-10T09:02:50.673Z,24.56
2023-05-10T09:07:53.865Z,24.44
2023-05-10T09:12:59.355Z,25.68
2023-05-10T09:18:03.739Z,25.60
2023-05-10T09:23:06.817Z,26.05
2023-05-10T09:28:10.653Z,24.71
2023-05-10T09:33:12.851Z,27.19
2023-05-10T09:38:14.977Z,26.40
2023-05-10T09:43:17.111Z,27.46
2023-05-10T09:48:19.237Z,24.86
2023-05-10T09:53:21.386Z,27.42
2023-05-10T09:58:23.516Z,25.27
2023-05-10T10:03:26.539Z,26.77
2023-05-10T10:08:30.163Z,26.12
2023-05-10T10:13:33.160Z,27.82
2023-05-10T10:18:39.822Z,25.92
2023-05-10T10:23:42.062Z,27.53
2023-05-10T10:28:48.334Z,27.61
2023-05-10T10:33:56.634Z,28.38
2023-05-10T10:39:02.620Z,27.22
2023-05-10T10:44:35.317Z,24.95
2023-05-10T10:49:49.319Z,23.38
2023-05-10T10:54:53.392Z,22.04
2023-05-10T11:00:21.439Z,25.81
2023-05-10T11:05:29.678Z,25.28
2023-05-10T11:10:31.901Z,29.68
2023-05-10T11:15:39.297Z,29.66
2023-05-10T11:20:41.580Z,27.67
2023-05-10T11:25:45.213Z,28.27
2023-05-10T11:30:48.172Z,30.77
2023-05-10T11:35:50.413Z,32.21
2023-05-10T11:40:52.943Z,26.92
2023-05-10T11:45:55.957Z,33.03
2023-05-10T11:50:58.999Z,27.64
2023-05-10T11:56:08.063Z,26.66
2023-05-10T12:01:11.337Z,23.49
2023-05-10T12:06:13.627Z,22.49
2023-05-10T12:11:18.734Z,21.54
2023-05-10T12:16:23.546Z,21.96
2023-05-10T12:21:26.718Z,21.90
2023-05-10T12:26:30.128Z,22.38
2023-05-10T12:31:32.304Z,22.15
2023-05-10T12:36:39.694Z,22.79
2023-05-10T12:41:43.578Z,22.80
2023-05-10T12:46:45.943Z,23.38
2023-05-10T12:51:48.077Z,24.50
2023-05-10T12:56:50.181Z,23.15
2023-05-10T13:01:52.345Z,22.74
2023-05-10T13:06:56.541Z,22.38
2023-05-10T13:11:58.894Z,23.20
2023-05-10T13:17:01.176Z,24.03
2023-05-10T13:22:04.180Z,23.16
2023-05-10T13:27:06.484Z,22.60
2023-05-10T13:32:08.872Z,25.57
2023-05-10T13:37:11.088Z,25.93
2023-05-10T13:42:13.249Z,25.26
2023-05-10T13:47:15.741Z,24.96
2023-05-10T13:52:17.917Z,23.28
2023-05-10T13:57:20.070Z,25.92
2023-05-10T14:02:22.276Z,24.55
2023-05-10T14:07:24.447Z,24.58
2023-05-10T14:12:26.810Z,26.25
2023-05-10T14:17:28.973Z,26.44
2023-05-10T14:22:31.082Z,25.79
2023-05-10T14:27:33.631Z,28.03
2023-05-10T14:32:37.646Z,27.34
2023-05-10T14:37:40.061Z,27.79
2023-05-10T14:42:43.460Z,26.42
2023-05-10T14:47:45.587Z,26.22
2023-05-10T14:52:48.081Z,26.18
2023-05-10T14:57:51.704Z,25.90
2023-05-10T15:02:53.907Z,23.66
2023-05-10T15:07:56.878Z,21.66
2023-05-10T15:12:59.223Z,21.26
2023-05-10T15:18:01.479Z,20.82
2023-05-10T15:23:04.031Z,20.42
2023-05-10T15:28:06.177Z,20.15
2023-05-10T15:33:09.713Z,19.90
2023-05-10T15:38:12.614Z,19.85
2023-05-10T15:43:15.104Z,19.63
2023-05-10T15:48:17.406Z,19.78
2023-05-10T15:53:19.685Z,19.70
2023-05-10T15:58:21.878Z,21.07
2023-05-10T16:03:25.123Z,20.76
2023-05-10T16:08:30.759Z,20.96
2023-05-10T16:13:32.926Z,20.24
2023-05-10T16:18:35.765Z,19.95
2023-05-10T16:23:38.076Z,19.83
2023-05-10T16:28:41.004Z,19.66
2023-05-10T16:33:43.704Z,19.84
2023-05-10T16:38:45.936Z,19.64
2023-05-10T16:43:48.217Z,19.35
2023-05-10T16:48:50.395Z,19.32
2023-05-10T16:53:53.532Z,19.10
2023-05-10T16:58:55.686Z,18.74
2023-05-10T17:03:57.977Z,18.36
2023-05-10T17:09:01.124Z,18.16
2023-05-10T17:14:03.399Z,17.95
2023-05-10T17:19:05.928Z,17.69
2023-05-10T17:24:08.326Z,17.58
2023-05-10T17:29:10.879Z,17.38
2023-05-10T17:34:13.201Z,17.31
2023-05-10T17:39:15.635Z,17.13
2023-05-10T17:44:17.815Z,16.96
2023-05-10T17:49:19.930Z,16.89
2023-05-10T17:54:22.257Z,16.67
2023-05-10T17:59:24.384Z,16.41
2023-05-10T18:04:26.614Z,16.38
2023-05-10T18:09:29.306Z,16.03
2023-05-10T18:14:40.424Z,15.78
2023-05-10T18:19:43.125Z,15.66
2023-05-10T18:24:47.100Z,15.59
2023-05-10T18:29:49.291Z,15.43
2023-05-10T18:34:52.454Z,15.44
2023-05-10T18:39:56.430Z,15.26
2023-05-10T18:44:58.573Z,15.31
2023-05-10T18:50:00.989Z,15.23
2023-05-10T18:55:03.616Z,15.20
2023-05-10T19:00:07.151Z,15.19
2023-05-10T19:05:09.959Z,15.44
2023-05-10T19:10:15.555Z,15.48
2023-05-10T19:15:19.403Z,15.37
2023-05-10T19:20:24.649Z,15.47
2023-05-10T19:25:29.431Z,15.43
2023-05-10T19:30:31.824Z,15.39
2023-05-10T19:35:34.081Z,15.40
2023-05-10T19:40:36.547Z,15.34
2023-05-10T19:45:38.771Z,15.19
2023-05-10T19:50:41.089Z,15.00
2023-05-10T19:55:43.247Z,14.97
2023-05-10T20:00:45.596Z,14.94
2023-05-10T20:05:47.723Z,14.96
2023-05-10T20:10:49.829Z,15.08
2023-05-10T20:15:59.492Z,15.09
2023-05-10T20:21:01.739Z,15.17
2023-05-10T20:26:04.544Z,15.16
2023-05-10T20:31:06.703Z,15.06
2023-05-10T20:36:09.725Z,15.00
2023-05-10T20:41:12.021Z,15.17
2023-05-10T20:46:14.273Z,15.22
2023-05-10T20:51:16.420Z,15.03
2023-05-10T20:56:18.981Z,15.08
2023-05-10T21:01:21.161Z,14.98
2023-05-10T21:06:23.304Z,14.98
2023-05-10T21:11:25.741Z,14.97
2023-05-10T21:16:28.246Z,15.05
2023-05-10T21:21:30.482Z,14.95
2023-05-10T21:26:32.692Z,14.93
2023-05-10T21:31:34.922Z,14.84
2023-05-10T21:36:37.094Z,14.72
2023-05-10T21:41:39.266Z,14.88
2023-05-10T21:46:41.432Z,14.76
2023-05-10T21:51:43.876Z,14.76
2023-05-10T21:56:46.052Z,14.70
2023-05-10T22:01:48.194Z,14.72
2023-05-10T22:06:50.637Z,14.66
2023-05-10T22:11:52.793Z,14.74
2023-05-10T22:16:54.977Z,14.70
2023-05-10T22:21:57.206Z,14.65
2023-05-10T22:26:59.550Z,14.69
2023-05-10T22:32:05.680Z,14.65
2023-05-10T22:37:07.900Z,14.62
2023-05-10T22:42:10.154Z,14.66
2023-05-10T22:47:12.346Z,14.49
2023-05-10T22:52:14.442Z,14.19
2023-05-10T22:57:17.293Z,14.02
2023-05-10T23:02:19.537Z,13.71
2023-05-10T23:07:22.012Z,13.72
2023-05-10T23:12:24.226Z,13.52
2023-05-10T23:17:26.384Z,13.30
2023-05-10T23:22:28.552Z,13.15
2023-05-10T23:27:31.056Z,13.10
2023-05-10T23:32:33.308Z,13.25
2023-05-10T23:37:36.644Z,13.51
2023-05-10T23:42:38.941Z,13.53
2023-05-10T23:47:41.594Z,13.48
2023-05-10T23:52:43.749Z,13.45
2023-05-10T23:57:46.093Z,13.40
